PWSweather.com
Personal Weather Stations
Station Observations
METEOC500
Santo Antonio, FunchalPT 2020

Santo AntonioFunchalPT 2020

Lat: 32.678227, Lon: -16.945054

Elevation: 1669.94751

Station Type: WH Series

High Low Average
Temperature 60.6°F15.9°C 52.2°F11.2°C 55.9°F13.3°C
Dew Point 52.7°F11.5°C 41.2°F5.1°C 46.3°F7.9°C
Winds 8.5 mph 13.7 kmh Calm Calm 2.0 mph SW3.2 kmh SW
Wind Gusts 17.4 mph28.0 kmh 2.5 mph4.0 kmh 8.0 mph12.9 kmh
Humidity 88% 55% 70%
Pressure 30.05 in1017.6 mb 29.93 in1013.5 mb -
Precipitation 0.00 in0.0 mm - -
Hour Temp Dew Point Humidity Winds Wind Gusts Pressure Precip Precip Rate Daily Precip Total
12:01 AM 56.1°F13.4°C 52.7°F11.5°C 88% 2.5 mph NNW4.0 kmh NNW 4.9 mph7.9 kmh 29.97 in1014.9 mb 0.00 in0.0 mm 0.00 in0.0 mm 0.00 in0.0 mm
12:16 AM 55.8°F13.2°C 51.6°F10.9°C 86% 3.8 mph NW6.1 kmh NW 7.6 mph12.2 kmh 29.97 in1014.9 mb 0.00 in0.0 mm 0.00 in0.0 mm 0.00 in0.0 mm
12:31 AM 55.8°F13.2°C 50.7°F10.4°C 83% Calm Calm 4.9 mph7.9 kmh 29.97 in1014.9 mb 0.00 in0.0 mm 0.00 in0.0 mm 0.00 in0.0 mm
12:46 AM 55.9°F13.3°C 51.8°F11.0°C 86% 0.9 mph WSW1.4 kmh WSW 4.9 mph7.9 kmh 29.96 in1014.6 mb 0.00 in0.0 mm 0.00 in0.0 mm 0.00 in0.0 mm
01:01 AM 55.9°F13.3°C 47.8°F8.8°C 74% 1.3 mph NNW2.1 kmh NNW 17.4 mph28.0 kmh 29.96 in1014.6 mb 0.00 in0.0 mm 0.00 in0.0 mm 0.00 in0.0 mm
01:16 AM 56.1°F13.4°C 49.6°F9.8°C 79% 3.1 mph NNW5.0 kmh NNW 10.1 mph16.3 kmh 29.96 in1014.6 mb 0.00 in0.0 mm 0.00 in0.0 mm 0.00 in0.0 mm
01:31 AM 56.1°F13.4°C 50.4°F10.2°C 81% 0.7 mph SW1.1 kmh SW 4.9 mph7.9 kmh 29.95 in1014.2 mb 0.00 in0.0 mm 0.00 in0.0 mm 0.00 in0.0 mm
01:46 AM 55.6°F13.1°C 51.4°F10.8°C 86% 1.6 mph NNW2.6 kmh NNW 10.1 mph16.3 kmh 29.95 in1014.2 mb 0.00 in0.0 mm 0.00 in0.0 mm 0.00 in0.0 mm
02:01 AM 54.9°F12.7°C 47.8°F8.8°C 77% 6.3 mph N10.1 kmh N 7.6 mph12.2 kmh 29.94 in1013.9 mb 0.00 in0.0 mm 0.00 in0.0 mm 0.00 in0.0 mm
02:16 AM 55.0°F12.8°C 48.9°F9.4°C 80% Calm Calm 10.1 mph16.3 kmh 29.93 in1013.5 mb 0.00 in0.0 mm 0.00 in0.0 mm 0.00 in0.0 mm
02:31 AM 55.2°F12.9°C 44.1°F6.7°C 66% 6.5 mph N10.5 kmh N 12.5 mph20.1 kmh 29.93 in1013.5 mb 0.00 in0.0 mm 0.00 in0.0 mm 0.00 in0.0 mm
02:46 AM 55.2°F12.9°C 43.7°F6.5°C 65% 0.9 mph SW1.4 kmh SW 10.1 mph16.3 kmh 29.93 in1013.5 mb 0.00 in0.0 mm 0.00 in0.0 mm 0.00 in0.0 mm
03:01 AM 55.0°F12.8°C 45.1°F7.3°C 69% Calm Calm 4.9 mph7.9 kmh 29.93 in1013.5 mb 0.00 in0.0 mm 0.00 in0.0 mm 0.00 in0.0 mm
03:16 AM 54.3°F12.4°C 44.8°F7.1°C 70% 4.0 mph NW6.4 kmh NW 7.6 mph12.2 kmh 29.94 in1013.9 mb 0.00 in0.0 mm 0.00 in0.0 mm 0.00 in0.0 mm
03:31 AM 54.1°F12.3°C 44.6°F7.0°C 70% 0.9 mph SSW1.4 kmh SSW 7.6 mph12.2 kmh 29.93 in1013.5 mb 0.00 in0.0 mm 0.00 in0.0 mm 0.00 in0.0 mm
03:46 AM 54.0°F12.2°C 44.4°F6.9°C 70% 0.9 mph N1.4 kmh N 12.5 mph20.1 kmh 29.93 in1013.5 mb 0.00 in0.0 mm 0.00 in0.0 mm 0.00 in0.0 mm
04:01 AM 53.8°F12.1°C 43.5°F6.4°C 68% 4.5 mph NNW7.2 kmh NNW 12.5 mph20.1 kmh 29.93 in1013.5 mb 0.00 in0.0 mm 0.00 in0.0 mm 0.00 in0.0 mm
04:16 AM 53.8°F12.1°C 42.6°F5.9°C 66% 1.8 mph N2.9 kmh N 12.5 mph20.1 kmh 29.94 in1013.9 mb 0.00 in0.0 mm 0.00 in0.0 mm 0.00 in0.0 mm
04:32 AM 53.2°F11.8°C 43.0°F6.1°C 68% Calm Calm 10.1 mph16.3 kmh 29.93 in1013.5 mb 0.00 in0.0 mm 0.00 in0.0 mm 0.00 in0.0 mm
04:47 AM 52.9°F11.6°C 44.1°F6.7°C 72% 2.5 mph NW4.0 kmh NW 4.9 mph7.9 kmh 29.94 in1013.9 mb 0.00 in0.0 mm 0.00 in0.0 mm 0.00 in0.0 mm
05:02 AM 52.9°F11.6°C 43.0°F6.1°C 69% 0.9 mph S1.4 kmh S 12.5 mph20.1 kmh 29.93 in1013.5 mb 0.00 in0.0 mm 0.00 in0.0 mm 0.00 in0.0 mm
05:17 AM 53.4°F11.9°C 42.8°F6.0°C 67% 0.9 mph SW1.4 kmh SW 12.5 mph20.1 kmh 29.93 in1013.5 mb 0.00 in0.0 mm 0.00 in0.0 mm 0.00 in0.0 mm
05:32 AM 53.4°F11.9°C 42.8°F6.0°C 67% Calm Calm 10.1 mph16.3 kmh 29.93 in1013.5 mb 0.00 in0.0 mm 0.00 in0.0 mm 0.00 in0.0 mm
05:47 AM 53.2°F11.8°C 43.3°F6.3°C 69% Calm Calm 7.6 mph12.2 kmh 29.93 in1013.5 mb 0.00 in0.0 mm 0.00 in0.0 mm 0.00 in0.0 mm
06:02 AM 53.1°F11.7°C 44.2°F6.8°C 72% 1.8 mph NW2.9 kmh NW 7.6 mph12.2 kmh 29.94 in1013.9 mb 0.00 in0.0 mm 0.00 in0.0 mm 0.00 in0.0 mm
06:17 AM 52.5°F11.4°C 44.1°F6.7°C 73% 2.2 mph WNW3.5 kmh WNW 7.6 mph12.2 kmh 29.94 in1013.9 mb 0.00 in0.0 mm 0.00 in0.0 mm 0.00 in0.0 mm
06:32 AM 52.5°F11.4°C 42.6°F5.9°C 69% 2.5 mph NNW4.0 kmh NNW 7.6 mph12.2 kmh 29.94 in1013.9 mb 0.00 in0.0 mm 0.00 in0.0 mm 0.00 in0.0 mm
06:47 AM 53.1°F11.7°C 43.5°F6.4°C 70% 0.9 mph NNW1.4 kmh NNW 4.9 mph7.9 kmh 29.95 in1014.2 mb 0.00 in0.0 mm 0.00 in0.0 mm 0.00 in0.0 mm
07:02 AM 53.4°F11.9°C 43.9°F6.6°C 70% 0.7 mph NW1.1 kmh NW 4.9 mph7.9 kmh 29.95 in1014.2 mb 0.00 in0.0 mm 0.00 in0.0 mm 0.00 in0.0 mm
07:17 AM 53.2°F11.8°C 44.4°F6.9°C 72% 1.8 mph SW2.9 kmh SW 4.9 mph7.9 kmh 29.96 in1014.6 mb 0.00 in0.0 mm 0.00 in0.0 mm 0.00 in0.0 mm
07:32 AM 53.4°F11.9°C 45.0°F7.2°C 73% Calm Calm 7.6 mph12.2 kmh 29.96 in1014.6 mb 0.00 in0.0 mm 0.00 in0.0 mm 0.00 in0.0 mm
07:47 AM 53.8°F12.1°C 45.3°F7.4°C 73% 1.8 mph N2.9 kmh N 7.6 mph12.2 kmh 29.96 in1014.6 mb 0.00 in0.0 mm 0.00 in0.0 mm 0.00 in0.0 mm
08:02 AM 53.8°F12.1°C 46.4°F8.0°C 76% 0.2 mph NW0.3 kmh NW 4.9 mph7.9 kmh 29.97 in1014.9 mb 0.00 in0.0 mm 0.00 in0.0 mm 0.00 in0.0 mm
08:17 AM 54.0°F12.2°C 45.1°F7.3°C 72% Calm Calm 2.5 mph4.0 kmh 29.97 in1014.9 mb 0.00 in0.0 mm 0.00 in0.0 mm 0.00 in0.0 mm
08:32 AM 54.1°F12.3°C 45.3°F7.4°C 72% Calm Calm 4.9 mph7.9 kmh 29.97 in1014.9 mb 0.00 in0.0 mm 0.00 in0.0 mm 0.00 in0.0 mm
08:47 AM 54.3°F12.4°C 45.1°F7.3°C 71% 4.0 mph N6.4 kmh N 7.6 mph12.2 kmh 29.98 in1015.2 mb 0.00 in0.0 mm 0.00 in0.0 mm 0.00 in0.0 mm
09:02 AM 55.2°F12.9°C 41.2°F5.1°C 59% Calm Calm 10.1 mph16.3 kmh 29.98 in1015.2 mb 0.00 in0.0 mm 0.00 in0.0 mm 0.00 in0.0 mm
09:17 AM 56.5°F13.6°C 42.3°F5.7°C 59% 4.5 mph SW7.2 kmh SW 10.1 mph16.3 kmh 29.98 in1015.2 mb 0.00 in0.0 mm 0.00 in0.0 mm 0.00 in0.0 mm
09:33 AM 56.7°F13.7°C 43.3°F6.3°C 61% 2.5 mph N4.0 kmh N 12.5 mph20.1 kmh 29.99 in1015.6 mb 0.00 in0.0 mm 0.00 in0.0 mm 0.00 in0.0 mm
09:48 AM 55.9°F13.3°C 42.3°F5.7°C 60% 3.4 mph NE5.5 kmh NE 10.1 mph16.3 kmh 29.99 in1015.6 mb 0.00 in0.0 mm 0.00 in0.0 mm 0.00 in0.0 mm
10:03 AM 56.8°F13.8°C 41.7°F5.4°C 57% 4.9 mph S7.9 kmh S 7.6 mph12.2 kmh 30.00 in1015.9 mb 0.00 in0.0 mm 0.00 in0.0 mm 0.00 in0.0 mm
10:18 AM 58.3°F14.6°C 42.3°F5.7°C 55% 0.2 mph WSW0.3 kmh WSW 10.1 mph16.3 kmh 30.00 in1015.9 mb 0.00 in0.0 mm 0.00 in0.0 mm 0.00 in0.0 mm
10:33 AM 59.0°F15.0°C 42.8°F6.0°C 55% 0.9 mph SW1.4 kmh SW 10.1 mph16.3 kmh 30.01 in1016.3 mb 0.00 in0.0 mm 0.00 in0.0 mm 0.00 in0.0 mm
10:48 AM 59.5°F15.3°C 44.2°F6.8°C 57% 2.2 mph ENE3.5 kmh ENE 7.6 mph12.2 kmh 30.00 in1015.9 mb 0.00 in0.0 mm 0.00 in0.0 mm 0.00 in0.0 mm
11:03 AM 60.1°F15.6°C 43.9°F6.6°C 55% 2.5 mph SE4.0 kmh SE 10.1 mph16.3 kmh 30.01 in1016.3 mb 0.00 in0.0 mm 0.00 in0.0 mm 0.00 in0.0 mm
11:18 AM 58.6°F14.8°C 46.0°F7.8°C 63% 0.7 mph N1.1 kmh N 12.5 mph20.1 kmh 30.01 in1016.3 mb 0.00 in0.0 mm 0.00 in0.0 mm 0.00 in0.0 mm
11:33 AM 57.4°F14.1°C 45.0°F7.2°C 63% Calm Calm 4.9 mph7.9 kmh 30.01 in1016.3 mb 0.00 in0.0 mm 0.00 in0.0 mm 0.00 in0.0 mm
11:48 AM 57.9°F14.4°C 46.9°F8.3°C 67% 0.7 mph SE1.1 kmh SE 7.6 mph12.2 kmh 30.01 in1016.3 mb 0.00 in0.0 mm 0.00 in0.0 mm 0.00 in0.0 mm
12:03 PM 57.9°F14.4°C 46.9°F8.3°C 67% Calm Calm 7.6 mph12.2 kmh 30.01 in1016.3 mb 0.00 in0.0 mm 0.00 in0.0 mm 0.00 in0.0 mm
12:18 PM 58.5°F14.7°C 46.8°F8.2°C 65% 4.0 mph NNE6.4 kmh NNE 7.6 mph12.2 kmh 30.00 in1015.9 mb 0.00 in0.0 mm 0.00 in0.0 mm 0.00 in0.0 mm
12:33 PM 58.3°F14.6°C 48.6°F9.2°C 70% 4.7 mph N7.6 kmh N 10.1 mph16.3 kmh 30.01 in1016.3 mb 0.00 in0.0 mm 0.00 in0.0 mm 0.00 in0.0 mm
12:48 PM 56.8°F13.8°C 47.8°F8.8°C 72% 8.5 mph N13.7 kmh N 10.1 mph16.3 kmh 30.01 in1016.3 mb 0.00 in0.0 mm 0.00 in0.0 mm 0.00 in0.0 mm
01:03 PM 56.8°F13.8°C 43.5°F6.4°C 61% Calm Calm 10.1 mph16.3 kmh 30.00 in1015.9 mb 0.00 in0.0 mm 0.00 in0.0 mm 0.00 in0.0 mm
01:18 PM 59.2°F15.1°C 44.4°F6.9°C 58% 3.4 mph N5.5 kmh N 7.6 mph12.2 kmh 30.00 in1015.9 mb 0.00 in0.0 mm 0.00 in0.0 mm 0.00 in0.0 mm
01:34 PM 60.3°F15.7°C 46.4°F8.0°C 60% Calm Calm 12.5 mph20.1 kmh 30.00 in1015.9 mb 0.00 in0.0 mm 0.00 in0.0 mm 0.00 in0.0 mm
01:49 PM 59.7°F15.4°C 47.1°F8.4°C 63% 2.5 mph S4.0 kmh S 10.1 mph16.3 kmh 30.00 in1015.9 mb 0.00 in0.0 mm 0.00 in0.0 mm 0.00 in0.0 mm
02:04 PM 59.5°F15.3°C 48.2°F9.0°C 66% 6.3 mph SSW10.1 kmh SSW 12.5 mph20.1 kmh 30.00 in1015.9 mb 0.00 in0.0 mm 0.00 in0.0 mm 0.00 in0.0 mm
02:19 PM 59.0°F15.0°C 48.0°F8.9°C 67% 6.5 mph S10.5 kmh S 10.1 mph16.3 kmh 30.00 in1015.9 mb 0.00 in0.0 mm 0.00 in0.0 mm 0.00 in0.0 mm
02:34 PM 58.5°F14.7°C 48.4°F9.1°C 69% 3.4 mph S5.5 kmh S 10.1 mph16.3 kmh 30.00 in1015.9 mb 0.00 in0.0 mm 0.00 in0.0 mm 0.00 in0.0 mm
02:49 PM 58.3°F14.6°C 46.9°F8.3°C 66% 3.1 mph SE5.0 kmh SE 7.6 mph12.2 kmh 29.99 in1015.6 mb 0.00 in0.0 mm 0.00 in0.0 mm 0.00 in0.0 mm
03:04 PM 59.0°F15.0°C 46.4°F8.0°C 63% 1.6 mph NE2.6 kmh NE 10.1 mph16.3 kmh 29.99 in1015.6 mb 0.00 in0.0 mm 0.00 in0.0 mm 0.00 in0.0 mm
03:19 PM 60.6°F15.9°C 47.1°F8.4°C 61% 3.1 mph SE5.0 kmh SE 10.1 mph16.3 kmh 29.98 in1015.2 mb 0.00 in0.0 mm 0.00 in0.0 mm 0.00 in0.0 mm
03:34 PM 60.6°F15.9°C 48.7°F9.3°C 65% Calm Calm 10.1 mph16.3 kmh 29.98 in1015.2 mb 0.00 in0.0 mm 0.00 in0.0 mm 0.00 in0.0 mm
03:49 PM 59.5°F15.3°C 47.3°F8.5°C 64% Calm Calm 7.6 mph12.2 kmh 29.98 in1015.2 mb 0.00 in0.0 mm 0.00 in0.0 mm 0.00 in0.0 mm
04:04 PM 59.0°F15.0°C 48.0°F8.9°C 67% 7.8 mph NW12.6 kmh NW 10.1 mph16.3 kmh 29.99 in1015.6 mb 0.00 in0.0 mm 0.00 in0.0 mm 0.00 in0.0 mm
04:19 PM 58.3°F14.6°C 47.3°F8.5°C 67% 0.2 mph SE0.3 kmh SE 12.5 mph20.1 kmh 29.98 in1015.2 mb 0.00 in0.0 mm 0.00 in0.0 mm 0.00 in0.0 mm
04:34 PM 57.9°F14.4°C 47.5°F8.6°C 68% 3.4 mph ENE5.5 kmh ENE 10.1 mph16.3 kmh 29.98 in1015.2 mb 0.00 in0.0 mm 0.00 in0.0 mm 0.00 in0.0 mm
04:49 PM 57.9°F14.4°C 47.5°F8.6°C 68% Calm Calm 10.1 mph16.3 kmh 29.98 in1015.2 mb 0.00 in0.0 mm 0.00 in0.0 mm 0.00 in0.0 mm
05:04 PM 57.4°F14.1°C 47.3°F8.5°C 69% 6.5 mph N10.5 kmh N 10.1 mph16.3 kmh 29.99 in1015.6 mb 0.00 in0.0 mm 0.00 in0.0 mm 0.00 in0.0 mm
05:19 PM 57.0°F13.9°C 46.9°F8.3°C 69% 0.9 mph NE1.4 kmh NE 10.1 mph16.3 kmh 29.99 in1015.6 mb 0.00 in0.0 mm 0.00 in0.0 mm 0.00 in0.0 mm
05:34 PM 57.2°F14.0°C 45.9°F7.7°C 66% 0.2 mph NNW0.3 kmh NNW 4.9 mph7.9 kmh 29.99 in1015.6 mb 0.00 in0.0 mm 0.00 in0.0 mm 0.00 in0.0 mm
05:49 PM 57.7°F14.3°C 46.4°F8.0°C 66% 0.7 mph N1.1 kmh N 7.6 mph12.2 kmh 29.99 in1015.6 mb 0.00 in0.0 mm 0.00 in0.0 mm 0.00 in0.0 mm
06:05 PM 57.7°F14.3°C 48.4°F9.1°C 71% 3.1 mph S5.0 kmh S 10.1 mph16.3 kmh 29.99 in1015.6 mb 0.00 in0.0 mm 0.00 in0.0 mm 0.00 in0.0 mm
06:20 PM 57.2°F14.0°C 48.2°F9.0°C 72% 1.8 mph SSE2.9 kmh SSE 10.1 mph16.3 kmh 30.00 in1015.9 mb 0.00 in0.0 mm 0.00 in0.0 mm 0.00 in0.0 mm
06:35 PM 57.0°F13.9°C 48.0°F8.9°C 72% 3.1 mph SW5.0 kmh SW 7.6 mph12.2 kmh 29.99 in1015.6 mb 0.00 in0.0 mm 0.00 in0.0 mm 0.00 in0.0 mm
06:50 PM 56.8°F13.8°C 48.2°F9.0°C 73% 0.9 mph SSW1.4 kmh SSW 4.9 mph7.9 kmh 30.00 in1015.9 mb 0.00 in0.0 mm 0.00 in0.0 mm 0.00 in0.0 mm
07:05 PM 56.5°F13.6°C 47.5°F8.6°C 72% Calm Calm 4.9 mph7.9 kmh 30.00 in1015.9 mb 0.00 in0.0 mm 0.00 in0.0 mm 0.00 in0.0 mm
07:20 PM 56.5°F13.6°C 48.0°F8.9°C 73% 0.9 mph SSW1.4 kmh SSW 4.9 mph7.9 kmh 30.01 in1016.3 mb 0.00 in0.0 mm 0.00 in0.0 mm 0.00 in0.0 mm
07:35 PM 56.3°F13.5°C 47.5°F8.6°C 72% Calm Calm 4.9 mph7.9 kmh 30.01 in1016.3 mb 0.00 in0.0 mm 0.00 in0.0 mm 0.00 in0.0 mm
07:50 PM 56.1°F13.4°C 47.7°F8.7°C 73% Calm Calm 2.5 mph4.0 kmh 30.01 in1016.3 mb 0.00 in0.0 mm 0.00 in0.0 mm 0.00 in0.0 mm
08:05 PM 56.1°F13.4°C 48.0°F8.9°C 74% Calm Calm 4.9 mph7.9 kmh 30.01 in1016.3 mb 0.00 in0.0 mm 0.00 in0.0 mm 0.00 in0.0 mm
08:20 PM 55.8°F13.2°C 48.4°F9.1°C 76% Calm Calm 4.9 mph7.9 kmh 30.02 in1016.6 mb 0.00 in0.0 mm 0.00 in0.0 mm 0.00 in0.0 mm
08:35 PM 55.4°F13.0°C 48.0°F8.9°C 76% 3.8 mph NNE6.1 kmh NNE 7.6 mph12.2 kmh 30.02 in1016.6 mb 0.00 in0.0 mm 0.00 in0.0 mm 0.00 in0.0 mm
08:50 PM 55.2°F12.9°C 47.1°F8.4°C 74% 2.2 mph NW3.5 kmh NW 12.5 mph20.1 kmh 30.03 in1016.9 mb 0.00 in0.0 mm 0.00 in0.0 mm 0.00 in0.0 mm
09:05 PM 55.2°F12.9°C 47.8°F8.8°C 76% Calm Calm 7.6 mph12.2 kmh 30.04 in1017.3 mb 0.00 in0.0 mm 0.00 in0.0 mm 0.00 in0.0 mm
09:20 PM 55.2°F12.9°C 48.6°F9.2°C 78% 3.8 mph N6.1 kmh N 4.9 mph7.9 kmh 30.04 in1017.3 mb 0.00 in0.0 mm 0.00 in0.0 mm 0.00 in0.0 mm
09:35 PM 54.9°F12.7°C 48.6°F9.2°C 79% 1.8 mph NNW2.9 kmh NNW 4.9 mph7.9 kmh 30.05 in1017.6 mb 0.00 in0.0 mm 0.00 in0.0 mm 0.00 in0.0 mm
09:50 PM 54.3°F12.4°C 48.0°F8.9°C 79% 3.1 mph NNW5.0 kmh NNW 7.6 mph12.2 kmh 30.05 in1017.6 mb 0.00 in0.0 mm 0.00 in0.0 mm 0.00 in0.0 mm
10:05 PM 54.3°F12.4°C 48.0°F8.9°C 79% Calm Calm 7.6 mph12.2 kmh 30.05 in1017.6 mb 0.00 in0.0 mm 0.00 in0.0 mm 0.00 in0.0 mm
10:21 PM 54.1°F12.3°C 48.0°F8.9°C 80% 1.3 mph NW2.1 kmh NW 4.9 mph7.9 kmh 30.05 in1017.6 mb 0.00 in0.0 mm 0.00 in0.0 mm 0.00 in0.0 mm
10:36 PM 53.6°F12.0°C 47.8°F8.8°C 81% 4.0 mph NNW6.4 kmh NNW 7.6 mph12.2 kmh 30.05 in1017.6 mb 0.00 in0.0 mm 0.00 in0.0 mm 0.00 in0.0 mm
10:51 PM 52.9°F11.6°C 47.3°F8.5°C 81% 4.0 mph NNW6.4 kmh NNW 7.6 mph12.2 kmh 30.05 in1017.6 mb 0.00 in0.0 mm 0.00 in0.0 mm 0.00 in0.0 mm
11:06 PM 52.5°F11.4°C 47.1°F8.4°C 82% 4.9 mph N7.9 kmh N 7.6 mph12.2 kmh 30.04 in1017.3 mb 0.00 in0.0 mm 0.00 in0.0 mm 0.00 in0.0 mm
11:21 PM 52.2°F11.2°C 46.6°F8.1°C 81% 3.8 mph NW6.1 kmh NW 10.1 mph16.3 kmh 30.04 in1017.3 mb 0.00 in0.0 mm 0.00 in0.0 mm 0.00 in0.0 mm
11:36 PM 52.2°F11.2°C 45.5°F7.5°C 78% 4.0 mph NNW6.4 kmh NNW 10.1 mph16.3 kmh 30.03 in1016.9 mb 0.00 in0.0 mm 0.00 in0.0 mm 0.00 in0.0 mm
11:51 PM 52.2°F11.2°C 45.9°F7.7°C 79% 6.0 mph N9.7 kmh N 10.1 mph16.3 kmh 30.03 in1016.9 mb 0.00 in0.0 mm 0.00 in0.0 mm 0.00 in0.0 mm